Time;durP1;ratioP1;P1;durP2;ratioP2;P2;SDS_P1;SDS_P2;PMS_P1;PMS_P2;Temp;Humidity;BMP_temperature;BMP_pressure;BME280_temperature;BME280_humidity;BME280_pressure;Samples;Min_cycle;Max_cycle;Signal;HPM_P1;HPM_P2
2021/05/18 00:00:45;;;;;;;26.08;8.10;;;10.90;99.90;;;;;;5060729;28;20036;-68
2021/05/18 00:03:11;;;;;;;25.92;7.95;;;10.80;99.90;;;;;;5060536;28;20029;-68
2021/05/18 00:05:39;;;;;;;23.27;7.10;;;10.90;99.90;;;;;;5060581;28;20485;-68
2021/05/18 00:08:07;;;;;;;23.13;7.38;;;10.80;99.90;;;;;;5060791;28;20401;-68
2021/05/18 00:13:25;;;;;;;22.73;7.15;;;10.80;99.90;;;;;;5063872;28;20056;-68
2021/05/18 00:15:55;;;;;;;25.10;7.57;;;10.80;99.90;;;;;;5059733;28;20405;-67
2021/05/18 00:18:21;;;;;;;23.65;7.55;;;10.80;99.90;;;;;;5058393;28;20024;-66
2021/05/18 00:20:47;;;;;;;29.67;8.35;;;10.70;99.90;;;;;;5055100;28;20044;-64
2021/05/18 00:23:13;;;;;;;25.52;7.05;;;10.70;99.90;;;;;;5063658;28;20025;-65
2021/05/18 00:25:40;;;;;;;31.30;8.00;;;10.60;99.90;;;;;;5054556;28;20214;-65
2021/05/18 00:28:06;;;;;;;27.75;8.45;;;10.60;99.90;;;;;;5062509;28;20066;-64
2021/05/18 00:30:33;;;;;;;26.98;6.90;;;10.60;99.90;;;;;;5063203;28;20036;-64
2021/05/18 00:33:00;;;;;;;21.95;7.22;;;10.60;99.90;;;;;;5061273;28;20022;-65
2021/05/18 00:35:25;;;;;;;28.15;8.02;;;10.60;99.90;;;;;;5058831;28;20033;-65
2021/05/18 00:37:51;;;;;;;31.83;8.88;;;10.60;99.90;;;;;;5058879;28;20371;-66
2021/05/18 00:40:19;;;;;;;26.35;8.50;;;10.50;99.90;;;;;;5062543;28;20033;-65
2021/05/18 00:42:53;;;;;;;24.63;8.05;;;10.50;99.90;;;;;;5062499;28;20381;-64
2021/05/18 00:45:38;;;;;;;33.92;10.07;;;10.50;99.90;;;;;;5059889;28;20029;-65
2021/05/18 00:48:06;;;;;;;32.17;9.02;;;10.50;99.90;;;;;;5058793;28;20033;-66
2021/05/18 00:50:38;;;;;;;22.35;8.52;;;10.40;99.90;;;;;;5061786;28;20389;-67
2021/05/18 00:53:04;;;;;;;29.92;9.23;;;10.40;99.90;;;;;;5062778;28;20031;-66
2021/05/18 01:00:44;;;;;;;30.77;9.45;;;10.50;99.90;;;;;;5059118;28;20559;-65
2021/05/18 01:03:11;;;;;;;24.02;8.98;;;10.50;99.90;;;;;;5059036;28;20025;-65
2021/05/18 01:08:28;;;;;;;23.75;8.35;;;10.40;99.90;;;;;;5073037;28;20068;-65
2021/05/18 01:10:54;;;;;;;22.85;8.77;;;10.40;99.90;;;;;;5060898;28;20067;-65
2021/05/18 01:13:20;;;;;;;28.60;9.10;;;10.40;99.90;;;;;;5063385;28;20055;-66
2021/05/18 01:15:45;;;;;;;26.75;9.75;;;10.40;99.90;;;;;;5059864;28;20029;-66
2021/05/18 01:18:11;;;;;;;34.72;9.45;;;10.50;99.90;;;;;;5058981;28;20481;-66
2021/05/18 01:21:01;;;;;;;30.17;9.02;;;10.40;99.90;;;;;;5059357;28;20531;-66
2021/05/18 01:23:27;;;;;;;29.33;9.02;;;10.50;99.90;;;;;;5057600;28;20541;-67
2021/05/18 01:25:54;;;;;;;23.95;9.30;;;10.50;99.90;;;;;;5058956;28;20100;-66
2021/05/18 01:28:22;;;;;;;33.67;9.48;;;10.60;99.90;;;;;;5057425;28;20052;-66
2021/05/18 01:30:49;;;;;;;26.25;9.27;;;10.50;99.90;;;;;;5063102;28;20138;-66
2021/05/18 01:33:15;;;;;;;28.15;9.73;;;10.60;99.90;;;;;;5058857;28;20513;-66
2021/05/18 01:35:41;;;;;;;27.08;9.38;;;10.60;99.90;;;;;;5058455;28;20060;-66
2021/05/18 01:38:10;;;;;;;26.58;9.85;;;10.60;99.90;;;;;;5059968;28;20225;-66
2021/05/18 01:43:12;;;;;;;24.30;9.27;;;10.70;99.90;;;;;;5061110;28;20430;-66
2021/05/18 01:45:41;;;;;;;26.08;9.95;;;10.80;99.90;;;;;;5062697;28;20020;-65
2021/05/18 01:48:11;;;;;;;25.70;9.32;;;10.80;99.90;;;;;;5053061;28;20040;-66
2021/05/18 01:50:38;;;;;;;28.75;11.45;;;10.80;99.90;;;;;;5049808;28;20032;-66
2021/05/18 01:53:04;;;;;;;28.45;11.20;;;10.80;99.90;;;;;;5057209;28;20028;-66
2021/05/18 01:55:43;;;;;;;27.85;11.85;;;10.80;99.90;;;;;;5060326;28;20482;-66
2021/05/18 01:58:08;;;;;;;27.15;11.13;;;10.80;99.90;;;;;;5063484;28;20116;-66
2021/05/18 02:00:38;;;;;;;31.65;11.68;;;10.80;99.90;;;;;;5057155;28;20140;-66
2021/05/18 02:03:04;;;;;;;29.77;10.02;;;10.90;99.90;;;;;;5058501;28;20078;-66
2021/05/18 02:05:34;;;;;;;31.73;10.90;;;10.90;99.90;;;;;;5058690;28;20025;-66
2021/05/18 02:08:01;;;;;;;27.60;10.85;;;10.90;99.90;;;;;;5057562;28;20350;-66
2021/05/18 02:10:26;;;;;;;30.92;10.77;;;10.90;99.90;;;;;;5058416;28;20070;-66
2021/05/18 02:12:55;;;;;;;34.85;11.30;;;10.90;99.90;;;;;;5062311;28;20288;-67
2021/05/18 02:26:19;;;;;;;31.42;11.57;;;10.90;99.90;;;;;;5065542;28;20113;-67
2021/05/18 02:28:46;;;;;;;31.70;11.48;;;10.90;99.90;;;;;;5063511;28;20363;-67
2021/05/18 02:31:12;;;;;;;29.52;11.25;;;10.90;99.90;;;;;;5062011;28;20033;-67
2021/05/18 02:33:37;;;;;;;30.83;11.25;;;10.90;99.90;;;;;;5060250;28;20112;-68
2021/05/18 02:36:04;;;;;;;29.00;11.35;;;10.80;99.90;;;;;;5062247;28;20039;-68
2021/05/18 02:38:30;;;;;;;28.25;10.15;;;10.80;99.90;;;;;;5068993;28;20036;-68
2021/05/18 02:40:55;;;;;;;26.25;9.55;;;10.70;99.90;;;;;;5064638;28;20032;-68
2021/05/18 02:43:26;;;;;;;31.73;10.02;;;10.70;99.90;;;;;;5066851;28;20049;-68
2021/05/18 02:51:20;;;;;;;27.27;10.68;;;10.60;99.90;;;;;;5062104;28;20175;-68
2021/05/18 02:53:45;;;;;;;24.67;9.90;;;10.60;99.90;;;;;;5061997;28;20120;-68
2021/05/18 02:58:43;;;;;;;34.25;11.30;;;10.60;99.90;;;;;;5064978;28;20036;-68
2021/05/18 03:01:08;;;;;;;35.42;10.95;;;10.50;99.90;;;;;;5056009;28;20397;-68
2021/05/18 03:03:34;;;;;;;26.65;10.90;;;10.50;99.90;;;;;;5064682;28;20025;-68
2021/05/18 03:05:59;;;;;;;31.45;11.38;;;10.50;99.90;;;;;;5065030;28;20469;-68
2021/05/18 03:08:25;;;;;;;25.67;11.60;;;10.50;99.90;;;;;;5062086;28;20028;-68
2021/05/18 03:10:50;;;;;;;40.53;12.68;;;10.40;99.90;;;;;;5059252;28;20032;-68
2021/05/18 03:13:16;;;;;;;35.13;13.05;;;10.40;99.90;;;;;;5062491;28;20033;-68
2021/05/18 03:15:42;;;;;;;26.23;11.43;;;10.50;99.90;;;;;;5061204;28;20025;-68
2021/05/18 03:18:07;;;;;;;33.33;12.60;;;10.50;99.90;;;;;;5061510;28;20021;-68
2021/05/18 03:20:33;;;;;;;28.73;12.27;;;10.40;99.90;;;;;;5063009;28;20124;-68
2021/05/18 03:22:58;;;;;;;26.23;10.93;;;10.40;99.90;;;;;;5063064;28;20024;-68
2021/05/18 03:25:24;;;;;;;29.05;11.43;;;10.40;99.90;;;;;;5055873;28;20291;-68
2021/05/18 03:27:52;;;;;;;31.40;11.45;;;10.40;99.90;;;;;;5055463;28;20032;-68
2021/05/18 03:35:29;;;;;;;28.75;11.90;;;10.50;99.90;;;;;;5063999;28;20034;-68
2021/05/18 03:38:01;;;;;;;32.50;11.40;;;10.40;99.90;;;;;;5071920;28;20107;-68
2021/05/18 03:40:28;;;;;;;25.05;10.23;;;10.40;99.90;;;;;;5063955;28;20025;-68
2021/05/18 03:43:20;;;;;;;20.85;9.48;;;10.40;99.90;;;;;;5068837;28;20025;-69
2021/05/18 03:45:46;;;;;;;28.38;10.38;;;10.40;99.90;;;;;;5060762;28;20036;-69
2021/05/18 03:53:57;;;;;;;29.50;10.85;;;10.40;99.90;;;;;;5068041;28;20039;-69
2021/05/18 04:04:52;;;;;;;21.85;9.00;;;10.40;99.90;;;;;;5067176;28;20160;-69
2021/05/18 04:13:18;;;;;;;26.20;10.82;;;10.50;99.90;;;;;;5094876;28;20062;-70
2021/05/18 04:18:31;;;;;;;26.13;10.25;;;10.50;99.90;;;;;;5055519;28;20097;-69
2021/05/18 04:21:13;;;;;;;22.33;10.07;;;10.50;99.90;;;;;;5063486;28;20020;-69
2021/05/18 04:23:48;;;;;;;29.27;9.97;;;10.50;99.90;;;;;;5060014;28;20118;-69
2021/05/18 05:01:39;;;;;;;18.67;8.35;;;10.80;99.90;;;;;;5059471;28;20032;-69
2021/05/18 05:04:14;;;;;;;14.88;7.13;;;10.90;99.90;;;;;;5050953;28;20017;-69
2021/05/18 05:14:30;;;;;;;8.07;5.25;;;11.10;99.90;;;;;;5067249;28;20378;-69
2021/05/18 05:16:55;;;;;;;13.90;5.82;;;11.00;99.90;;;;;;5065892;28;20020;-69
2021/05/18 05:19:26;;;;;;;10.45;5.63;;;11.20;99.90;;;;;;5060182;28;20025;-69
2021/05/18 05:21:51;;;;;;;11.73;5.10;;;11.20;99.90;;;;;;5053105;28;20521;-69
2021/05/18 05:24:17;;;;;;;11.93;4.97;;;11.30;99.90;;;;;;5068909;28;20140;-69
2021/05/18 05:26:42;;;;;;;7.57;4.70;;;11.30;99.90;;;;;;5070479;28;20274;-69
2021/05/18 05:29:08;;;;;;;8.75;4.65;;;11.40;99.90;;;;;;5063394;28;20225;-69
2021/05/18 05:31:35;;;;;;;9.65;4.70;;;11.50;99.90;;;;;;5049487;28;20040;-69
2021/05/18 05:34:01;;;;;;;8.43;4.55;;;11.60;99.90;;;;;;5050584;28;20024;-69
2021/05/18 05:36:27;;;;;;;6.53;3.85;;;11.60;99.90;;;;;;5058871;28;20032;-69
2021/05/18 05:38:59;;;;;;;11.63;4.25;;;11.50;99.90;;;;;;5067106;28;20033;-69
2021/05/18 05:41:24;;;;;;;7.85;3.60;;;11.60;99.90;;;;;;5051275;28;20374;-69
2021/05/18 05:43:50;;;;;;;10.55;4.50;;;11.40;99.90;;;;;;5059433;28;20033;-69
2021/05/18 05:46:16;;;;;;;9.25;4.25;;;11.40;99.90;;;;;;5050550;28;20036;-69
2021/05/18 05:48:41;;;;;;;10.82;4.15;;;11.40;99.90;;;;;;5050890;28;20083;-69
2021/05/18 05:51:07;;;;;;;11.20;4.53;;;11.40;99.90;;;;;;5060103;28;20029;-69
2021/05/18 05:53:32;;;;;;;8.25;4.43;;;11.30;99.90;;;;;;5055108;28;20056;-69
2021/05/18 05:55:58;;;;;;;7.50;3.92;;;11.30;99.90;;;;;;5048797;28;20039;-69
2021/05/18 05:58:24;;;;;;;12.77;4.20;;;11.40;99.90;;;;;;5063661;28;20025;-69
2021/05/18 06:00:49;;;;;;;10.02;4.45;;;11.50;99.90;;;;;;5062288;28;20062;-70
2021/05/18 06:03:15;;;;;;;9.57;4.50;;;11.80;99.90;;;;;;5053586;28;20052;-69
2021/05/18 06:05:40;;;;;;;7.05;3.92;;;11.90;99.90;;;;;;5061467;28;20028;-69
2021/05/18 06:08:06;;;;;;;8.85;4.20;;;12.00;99.90;;;;;;5056390;28;20033;-70
2021/05/18 06:10:36;;;;;;;9.70;4.00;;;12.00;99.90;;;;;;5051080;28;20035;-70
2021/05/18 06:13:14;;;;;;;8.52;3.85;;;12.10;99.90;;;;;;5051925;28;20032;-70
2021/05/18 06:29:36;;;;;;;10.15;3.10;;;12.00;99.90;;;;;;5052066;28;20036;-69
2021/05/18 06:43:35;;;;;;;7.03;4.88;;;11.90;99.90;;;;;;5053966;28;20135;-70
2021/05/18 06:46:14;;;;;;;12.38;5.63;;;11.80;99.90;;;;;;5051091;28;20556;-68
2021/05/18 06:48:55;;;;;;;18.48;5.25;;;12.00;99.90;;;;;;5051565;28;20598;-68
2021/05/18 06:51:24;;;;;;;12.52;6.60;;;12.00;99.90;;;;;;5036949;28;20045;-68
2021/05/18 06:53:49;;;;;;;12.18;7.60;;;12.10;99.90;;;;;;5052432;28;20032;-69
2021/05/18 06:56:15;;;;;;;15.82;8.77;;;12.10;99.90;;;;;;5045506;28;20024;-68
2021/05/18 07:01:12;;;;;;;14.70;9.73;;;12.20;99.90;;;;;;5049149;28;20095;-68
2021/05/18 07:11:17;;;;;;;14.23;9.38;;;12.50;99.90;;;;;;5047222;28;21035;-69
2021/05/18 07:13:43;;;;;;;12.32;8.43;;;12.90;99.90;;;;;;5051851;28;20475;-69
2021/05/18 07:16:09;;;;;;;12.40;7.07;;;13.70;99.90;;;;;;5053775;28;20036;-70
2021/05/18 07:18:35;;;;;;;11.93;6.93;;;14.30;99.90;;;;;;5052649;28;20036;-69
2021/05/18 07:21:02;;;;;;;12.27;6.68;;;14.40;99.90;;;;;;5050916;28;20029;-69
2021/05/18 07:23:28;;;;;;;9.90;6.68;;;14.50;99.90;;;;;;5051321;28;20017;-69
2021/05/18 07:25:53;;;;;;;8.38;5.75;;;14.90;99.90;;;;;;5051708;28;20021;-69
2021/05/18 07:28:20;;;;;;;9.55;5.53;;;15.50;99.90;;;;;;5052732;28;20106;-69
2021/05/18 07:30:46;;;;;;;7.72;4.68;;;15.40;99.90;;;;;;5054365;28;20090;-69
2021/05/18 07:33:12;;;;;;;4.60;3.97;;;15.50;99.90;;;;;;5043545;28;20489;-69
2021/05/18 07:35:38;;;;;;;7.65;4.40;;;15.60;99.90;;;;;;5049339;28;20112;-69
2021/05/18 07:38:05;;;;;;;7.25;3.55;;;16.00;99.90;;;;;;5057274;28;20056;-69
2021/05/18 07:40:32;;;;;;;10.18;3.70;;;16.60;99.90;;;;;;5056746;28;20032;-68
2021/05/18 07:42:58;;;;;;;7.15;3.28;;;17.70;99.90;;;;;;5054432;28;20017;-68
2021/05/18 07:45:28;;;;;;;6.05;3.15;;;17.70;99.90;;;;;;5052007;28;20029;-68
2021/05/18 07:48:11;;;;;;;5.93;3.47;;;17.40;99.90;;;;;;5047456;28;20023;-68
2021/05/18 08:07:02;;;;;;;5.72;2.67;;;19.60;99.90;;;;;;5059573;28;20053;-68
2021/05/18 08:09:29;;;;;;;4.95;2.70;;;19.40;99.90;;;;;;5062580;28;20056;-68
2021/05/18 08:11:54;;;;;;;4.10;3.10;;;19.20;99.90;;;;;;5045989;28;20032;-68
2021/05/18 08:14:21;;;;;;;4.60;2.67;;;18.60;99.90;;;;;;5057066;28;20025;-68
2021/05/18 08:17:09;;;;;;;10.20;3.22;;;18.70;99.90;;;;;;5057842;28;20024;-68
2021/05/18 08:20:22;;;;;;;4.78;2.53;;;18.50;99.90;;;;;;5058554;28;20033;-67
2021/05/18 09:49:32;;;;;;;3.33;1.67;;;19.90;87.50;;;;;;5054813;28;20090;-67
2021/05/18 10:34:28;;;;;;;2.80;1.50;;;21.90;64.70;;;;;;5061052;28;20024;-67
2021/05/18 10:36:55;;;;;;;2.67;1.38;;;21.20;64.70;;;;;;5060175;28;20075;-67
2021/05/18 10:39:27;;;;;;;3.30;1.73;;;20.20;68.40;;;;;;5054643;28;20101;-67
2021/05/18 10:41:53;;;;;;;;;;;19.10;76.20;;;;;;5047162;28;20084;-67
2021/05/18 10:44:19;;;;;;;6.38;1.90;;;18.70;81.20;;;;;;5053687;28;20397;-67
2021/05/18 10:46:50;;;;;;;6.35;1.90;;;18.60;84.90;;;;;;5074578;28;20116;-67
2021/05/18 10:49:36;;;;;;;4.85;1.85;;;18.70;86.30;;;;;;5057956;28;20028;-67
2021/05/18 10:52:09;;;;;;;6.35;1.80;;;18.90;85.00;;;;;;5050739;28;20021;-67
2021/05/18 10:54:37;;;;;;;7.70;1.80;;;19.80;79.90;;;;;;5058673;28;20469;-67
2021/05/18 10:57:10;;;;;;;6.07;1.60;;;20.40;77.50;;;;;;5063240;28;20086;-67
2021/05/18 10:59:46;;;;;;;3.85;1.60;;;21.50;73.90;;;;;;5055448;28;20558;-67
2021/05/18 11:02:12;;;;;;;3.25;1.50;;;20.70;63.80;;;;;;5051419;28;20052;-67
2021/05/18 11:04:52;;;;;;;2.35;1.30;;;20.30;68.10;;;;;;5054351;28;20020;-67
2021/05/18 11:07:21;;;;;;;6.53;1.70;;;20.40;70.40;;;;;;5064397;28;20099;-67
2021/05/18 11:09:47;;;;;;;7.03;2.15;;;20.10;69.40;;;;;;5055731;28;20033;-67
2021/05/18 11:12:15;;;;;;;10.38;1.83;;;20.30;73.70;;;;;;5050884;28;20408;-67
2021/05/18 11:15:02;;;;;;;3.90;1.63;;;20.40;71.20;;;;;;5061796;28;20048;-67
2021/05/18 11:17:33;;;;;;;11.27;2.10;;;20.20;70.40;;;;;;5058378;28;20258;-67
2021/05/18 11:20:35;;;;;;;6.28;1.80;;;19.70;73.20;;;;;;5056838;28;20037;-67
2021/05/18 11:23:24;;;;;;;10.95;2.08;;;19.80;74.20;;;;;;5048389;28;20401;-67
2021/05/18 11:26:08;;;;;;;4.43;1.50;;;19.70;75.00;;;;;;5056190;28;20035;-67
2021/05/18 11:28:49;;;;;;;3.50;1.50;;;19.50;73.40;;;;;;5053636;28;20045;-67
2021/05/18 11:31:24;;;;;;;2.25;1.30;;;19.60;69.50;;;;;;5052864;28;20039;-67
2021/05/18 11:33:57;;;;;;;1.83;1.30;;;19.20;70.40;;;;;;5052066;28;20384;-67
2021/05/18 11:36:29;;;;;;;;;;;20.30;71.40;;;;;;5058680;28;20032;-67
2021/05/18 11:39:07;;;;;;;11.93;2.15;;;21.10;64.50;;;;;;5059613;28;20007;-67
2021/05/18 11:41:38;;;;;;;11.75;1.95;;;21.20;62.30;;;;;;5053826;28;20036;-67
2021/05/18 11:44:05;;;;;;;1.70;0.70;;;21.20;58.40;;;;;;5057621;28;20027;-65
2021/05/18 11:46:33;;;;;;;4.90;1.73;;;20.90;59.10;;;;;;5058026;28;20083;-65
2021/05/18 11:49:01;;;;;;;8.48;1.63;;;20.30;61.30;;;;;;5061147;28;20025;-65
2021/05/18 11:51:44;;;;;;;2.63;1.20;;;20.00;64.50;;;;;;5047825;28;20041;-67
2021/05/18 11:54:11;;;;;;;2.63;0.93;;;20.00;67.10;;;;;;5056893;28;20051;-67
2021/05/18 11:56:38;;;;;;;6.03;1.45;;;20.60;62.90;;;;;;5055210;28;20037;-67
2021/05/18 11:59:11;;;;;;;2.25;1.10;;;21.40;58.90;;;;;;5057497;28;20123;-67
2021/05/18 12:01:38;;;;;;;7.55;1.25;;;21.40;57.90;;;;;;5049936;28;20021;-67
2021/05/18 12:04:12;;;;;;;12.52;2.08;;;21.80;58.30;;;;;;5056008;28;20074;-67
2021/05/18 12:06:52;;;;;;;8.13;1.95;;;22.70;56.90;;;;;;5061126;28;20108;-65
2021/05/18 12:09:17;;;;;;;3.08;1.08;;;23.30;54.50;;;;;;5055263;28;20047;-64
2021/05/18 12:11:43;;;;;;;2.42;1.20;;;23.90;53.10;;;;;;5046514;28;20036;-65
2021/05/18 12:14:10;;;;;;;2.30;1.00;;;25.10;49.70;;;;;;5064799;28;20559;-65
2021/05/18 12:16:44;;;;;;;5.32;1.10;;;25.60;49.40;;;;;;5058065;28;20405;-65
2021/05/18 12:19:14;;;;;;;4.22;0.85;;;26.00;45.50;;;;;;5058421;28;20098;-65
2021/05/18 12:21:43;;;;;;;3.08;1.00;;;26.40;46.80;;;;;;5047323;28;20473;-65
2021/05/18 12:24:16;;;;;;;1.17;0.85;;;25.50;46.30;;;;;;5061044;28;20064;-65
2021/05/18 12:26:52;;;;;;;2.35;1.00;;;24.70;47.10;;;;;;5056090;28;20493;-65
2021/05/18 12:29:32;;;;;;;1.38;0.73;;;24.40;46.70;;;;;;5063458;28;20036;-65
2021/05/18 12:32:16;;;;;;;1.67;0.70;;;25.00;46.80;;;;;;5042861;28;20159;-65
2021/05/18 12:34:43;;;;;;;1.27;0.85;;;25.80;43.80;;;;;;5067542;28;20031;-65
2021/05/18 12:37:09;;;;;;;2.72;0.75;;;25.10;43.70;;;;;;5054266;28;20041;-65
2021/05/18 12:39:41;;;;;;;2.38;1.10;;;24.70;45.10;;;;;;5061796;28;20446;-65
2021/05/18 12:42:09;;;;;;;2.35;1.10;;;23.40;48.10;;;;;;5044018;28;20044;-65
2021/05/18 12:44:56;;;;;;;2.22;1.05;;;23.70;47.30;;;;;;5060066;28;20021;-65
2021/05/18 12:47:41;;;;;;;3.13;0.80;;;24.80;46.30;;;;;;5056575;28;20431;-65
2021/05/18 12:50:12;;;;;;;2.45;0.80;;;25.50;43.30;;;;;;5051287;28;20052;-65
2021/05/18 12:52:43;;;;;;;4.55;1.38;;;25.10;42.90;;;;;;5047599;28;20025;-65
2021/05/18 12:55:26;;;;;;;6.88;1.40;;;24.70;44.00;;;;;;5054373;28;20564;-66
2021/05/18 12:58:00;;;;;;;8.80;2.50;;;25.70;44.10;;;;;;5058816;28;20433;-66
2021/05/18 13:00:36;;;;;;;7.80;1.83;;;25.90;43.70;;;;;;5051967;28;20033;-66
2021/05/18 13:03:12;;;;;;;3.58;0.93;;;26.10;43.50;;;;;;5054207;28;20065;-67
2021/05/18 13:05:49;;;;;;;2.35;0.82;;;26.80;41.50;;;;;;5057468;28;20028;-65
2021/05/18 13:08:19;;;;;;;2.40;0.73;;;27.00;40.60;;;;;;5051418;28;20541;-65
2021/05/18 13:10:52;;;;;;;3.08;0.73;;;27.20;40.90;;;;;;5047642;28;20067;-65
2021/05/18 13:13:23;;;;;;;6.95;0.77;;;26.60;40.50;;;;;;5053439;28;20939;-65
2021/05/18 13:16:08;;;;;;;3.00;0.90;;;26.60;42.10;;;;;;5054204;28;20036;-65
2021/05/18 13:18:34;;;;;;;2.80;0.80;;;26.70;40.80;;;;;;5059694;28;20031;-64
2021/05/18 13:21:00;;;;;;;7.50;0.90;;;26.60;40.80;;;;;;5050655;28;20029;-64
2021/05/18 13:23:56;;;;;;;4.82;0.93;;;25.50;42.50;;;;;;5044571;28;20446;-64
2021/05/18 13:26:31;;;;;;;11.23;1.35;;;24.40;43.70;;;;;;5059710;28;20083;-64
2021/05/18 13:29:01;;;;;;;3.13;0.90;;;23.10;46.30;;;;;;5063249;28;20024;-64
2021/05/18 13:31:29;;;;;;;4.60;1.00;;;23.90;46.30;;;;;;5054178;28;20033;-63
2021/05/18 13:33:55;;;;;;;2.60;0.88;;;24.80;43.90;;;;;;5049190;28;20025;-63
2021/05/18 13:36:20;;;;;;;2.35;0.90;;;24.30;43.80;;;;;;5057296;28;20496;-63
2021/05/18 13:38:46;;;;;;;2.47;0.80;;;24.10;43.40;;;;;;5060048;28;20462;-64
2021/05/18 13:41:12;;;;;;;2.50;0.90;;;24.40;42.00;;;;;;5050015;28;20097;-64
2021/05/18 13:43:38;;;;;;;1.85;0.70;;;24.40;42.40;;;;;;5056710;28;20021;-63
2021/05/18 13:46:04;;;;;;;3.05;0.73;;;23.80;43.10;;;;;;5055304;28;20035;-63
2021/05/18 13:48:30;;;;;;;5.22;1.27;;;23.10;44.10;;;;;;5061093;28;20078;-64
2021/05/18 13:50:56;;;;;;;3.42;0.77;;;23.10;46.00;;;;;;5054307;28;20038;-64
2021/05/18 13:53:22;;;;;;;2.60;1.10;;;23.20;45.10;;;;;;5051962;28;20359;-63
2021/05/18 13:55:48;;;;;;;2.65;0.80;;;22.80;45.60;;;;;;5058528;28;20532;-64
2021/05/18 13:58:14;;;;;;;3.15;0.80;;;22.00;46.30;;;;;;5066022;28;20033;-64
2021/05/18 14:00:40;;;;;;;4.47;1.10;;;21.70;47.70;;;;;;5052106;28;20033;-63
2021/05/18 14:03:06;;;;;;;2.67;0.70;;;22.00;47.90;;;;;;5053631;28;20033;-63
2021/05/18 14:05:31;;;;;;;6.35;0.80;;;21.90;47.80;;;;;;5049261;28;20025;-64
2021/05/18 14:10:40;;;;;;;2.17;0.82;;;22.20;47.80;;;;;;5059281;28;20032;-64
2021/05/18 14:13:06;;;;;;;2.70;0.90;;;22.80;45.10;;;;;;5055144;28;20097;-64
2021/05/18 14:15:32;;;;;;;1.80;0.80;;;23.70;44.60;;;;;;5057932;28;20469;-64
2021/05/18 14:17:57;;;;;;;2.08;0.50;;;24.00;43.90;;;;;;5063518;28;20157;-64
2021/05/18 14:20:23;;;;;;;3.00;0.70;;;24.20;44.20;;;;;;5057797;28;20016;-64
2021/05/18 14:22:49;;;;;;;6.60;0.98;;;25.10;42.20;;;;;;5045363;28;20048;-64
2021/05/18 14:25:14;;;;;;;2.40;0.90;;;23.80;42.80;;;;;;5059529;28;20143;-64
2021/05/18 14:27:41;;;;;;;3.22;0.90;;;22.80;44.70;;;;;;5050313;28;20408;-64
2021/05/18 14:30:10;;;;;;;12.35;1.40;;;22.30;45.60;;;;;;5052797;28;20124;-64
2021/05/18 14:32:36;;;;;;;1.98;1.00;;;23.40;44.70;;;;;;5045828;28;20488;-64
2021/05/18 14:35:07;;;;;;;2.72;0.65;;;24.10;41.90;;;;;;5052635;28;20401;-64
2021/05/18 14:37:33;;;;;;;5.53;1.13;;;25.00;40.50;;;;;;5050900;28;20021;-64
2021/05/18 14:43:02;;;;;;;4.57;0.70;;;25.00;39.20;;;;;;5054164;28;20028;-64
2021/05/18 14:45:32;;;;;;;6.97;1.42;;;23.70;42.50;;;;;;5048164;28;20036;-64
2021/05/18 14:56:03;;;;;;;2.15;0.80;;;22.50;45.00;;;;;;5059757;28;20041;-64
2021/05/18 14:58:28;;;;;;;1.98;0.60;;;22.50;44.70;;;;;;5060399;28;20115;-64
2021/05/18 15:00:54;;;;;;;3.65;1.00;;;22.30;44.80;;;;;;5053729;28;20107;-64
2021/05/18 15:03:19;;;;;;;8.23;1.05;;;21.80;47.90;;;;;;5059200;28;20024;-64
2021/05/18 15:05:45;;;;;;;10.93;1.60;;;21.00;48.50;;;;;;5051695;28;20154;-65
2021/05/18 15:08:11;;;;;;;18.58;3.38;;;20.50;50.70;;;;;;5049933;28;20478;-65
2021/05/18 15:10:36;;;;;;;9.30;1.30;;;19.90;51.80;;;;;;5053733;28;20082;-65
2021/05/18 15:13:03;;;;;;;6.60;1.30;;;19.50;51.60;;;;;;5052351;28;20052;-65
2021/05/18 15:15:29;;;;;;;8.25;1.10;;;19.30;53.10;;;;;;5050627;28;20120;-66
2021/05/18 15:17:57;;;;;;;6.53;1.00;;;19.40;52.90;;;;;;5058889;28;20108;-65
2021/05/18 15:20:24;;;;;;;3.38;0.90;;;19.30;53.10;;;;;;5065418;28;20029;-65
2021/05/18 15:22:50;;;;;;;3.33;1.00;;;18.90;53.70;;;;;;5053361;28;20032;-66
2021/05/18 15:25:16;;;;;;;2.22;0.95;;;18.90;54.60;;;;;;5059013;28;20025;-66
2021/05/18 15:27:42;;;;;;;3.97;0.70;;;18.80;55.00;;;;;;5069208;28;20107;-65
2021/05/18 15:30:09;;;;;;;4.20;0.85;;;18.80;55.50;;;;;;5059912;28;20037;-65
2021/05/18 15:32:35;;;;;;;2.65;1.25;;;18.90;55.70;;;;;;5060952;28;20051;-66
2021/05/18 15:35:01;;;;;;;3.00;1.00;;;18.80;56.60;;;;;;5053084;28;20115;-67
2021/05/18 15:37:27;;;;;;;3.30;1.05;;;18.70;57.00;;;;;;5060473;28;20151;-66
2021/05/18 15:39:52;;;;;;;4.88;1.10;;;18.70;57.60;;;;;;5059291;28;20029;-67
2021/05/18 15:42:19;;;;;;;1.65;1.00;;;18.80;57.20;;;;;;5071649;28;20025;-66
2021/05/18 15:44:45;;;;;;;1.73;1.08;;;18.90;57.20;;;;;;5063493;28;20488;-66
2021/05/18 15:47:11;;;;;;;3.75;1.25;;;18.90;56.60;;;;;;5066616;28;20029;-66
2021/05/18 15:49:36;;;;;;;2.50;0.82;;;18.90;56.60;;;;;;5052132;28;20032;-66
2021/05/18 15:52:03;;;;;;;2.78;1.10;;;19.20;56.50;;;;;;5066960;28;20032;-66
2021/05/18 15:54:28;;;;;;;3.28;1.00;;;19.30;55.90;;;;;;5066393;28;20032;-67
2021/05/18 15:56:54;;;;;;;1.98;0.85;;;19.60;54.40;;;;;;5063919;28;20082;-66
2021/05/18 15:59:20;;;;;;;2.00;0.90;;;19.90;54.50;;;;;;5066256;28;20036;-66
2021/05/18 16:01:46;;;;;;;3.47;1.20;;;20.10;53.00;;;;;;5058827;28;20033;-67
2021/05/18 16:04:12;;;;;;;3.97;0.80;;;20.50;53.20;;;;;;5067162;28;20028;-67
2021/05/18 16:06:43;;;;;;;1.55;0.88;;;21.00;51.50;;;;;;5059089;28;20020;-67
2021/05/18 16:09:10;;;;;;;2.03;1.00;;;20.70;51.30;;;;;;5060451;28;20539;-68
2021/05/18 16:11:37;;;;;;;2.80;0.90;;;20.20;51.40;;;;;;5060816;28;20290;-67
2021/05/18 16:14:03;;;;;;;1.77;0.95;;;20.10;53.10;;;;;;5060326;28;20025;-68
2021/05/18 16:16:29;;;;;;;2.85;0.80;;;20.00;52.10;;;;;;5056327;28;20033;-67
2021/05/18 16:18:55;;;;;;;2.38;1.08;;;20.20;52.40;;;;;;5054465;28;20043;-67
2021/05/18 16:21:24;;;;;;;1.35;0.85;;;20.30;52.10;;;;;;5063933;28;20052;-68
2021/05/18 16:23:56;;;;;;;1.40;1.00;;;20.20;52.80;;;;;;5071854;28;20028;-68
2021/05/18 16:26:28;;;;;;;1.50;1.10;;;20.20;52.80;;;;;;5059613;28;20025;-67
2021/05/18 16:28:54;;;;;;;1.67;0.80;;;20.10;52.70;;;;;;5058974;28;20072;-66
2021/05/18 16:31:21;;;;;;;1.80;0.80;;;20.30;52.90;;;;;;5067529;28;20381;-67
2021/05/18 16:33:48;;;;;;;1.30;0.88;;;19.80;53.30;;;;;;5056625;28;20024;-68
2021/05/18 16:36:15;;;;;;;2.80;0.90;;;19.70;54.50;;;;;;5055395;28;20029;-68
2021/05/18 16:38:42;;;;;;;1.63;0.80;;;19.70;55.60;;;;;;5065421;28;20033;-68
2021/05/18 16:41:08;;;;;;;3.92;1.15;;;19.40;55.40;;;;;;5058711;28;20036;-67
2021/05/18 16:43:34;;;;;;;3.95;1.02;;;19.30;55.20;;;;;;5050772;28;20512;-68
2021/05/18 16:46:00;;;;;;;3.28;0.90;;;19.30;56.10;;;;;;5066056;28;20041;-67
2021/05/18 16:48:29;;;;;;;3.33;1.00;;;19.30;55.50;;;;;;5053691;28;20028;-68
2021/05/18 16:50:56;;;;;;;2.40;1.00;;;19.30;55.00;;;;;;5055530;28;20029;-68
2021/05/18 16:53:22;;;;;;;1.88;1.00;;;19.10;54.90;;;;;;5061530;28;20533;-68
2021/05/18 16:55:48;;;;;;;2.22;1.30;;;18.90;56.20;;;;;;5067040;28;20402;-67
2021/05/18 16:58:14;;;;;;;2.75;1.38;;;18.70;56.60;;;;;;5053097;28;20069;-68
2021/05/18 17:00:40;;;;;;;1.73;1.20;;;18.80;56.60;;;;;;5071299;28;20380;-68
2021/05/18 17:03:07;;;;;;;5.05;1.10;;;18.60;56.10;;;;;;5061515;28;20029;-67
2021/05/18 17:05:32;;;;;;;2.17;1.25;;;18.50;57.80;;;;;;5062454;28;20394;-68
2021/05/18 17:08:03;;;;;;;1.73;1.10;;;18.60;57.40;;;;;;5071297;28;20051;-68
2021/05/18 17:10:34;;;;;;;2.88;1.17;;;18.40;59.20;;;;;;5061100;28;20036;-68
2021/05/18 17:13:01;;;;;;;2.97;1.65;;;18.30;60.40;;;;;;5055279;28;20124;-68
2021/05/18 17:15:28;;;;;;;2.15;1.65;;;18.20;60.40;;;;;;5068517;28;20442;-68
2021/05/18 17:17:55;;;;;;;2.58;1.70;;;18.10;60.10;;;;;;5065368;28;20025;-68
2021/05/18 17:20:22;;;;;;;5.40;2.00;;;18.00;61.70;;;;;;5066000;28;20032;-68
2021/05/18 17:22:48;;;;;;;3.03;1.95;;;18.00;64.00;;;;;;5051296;28;20021;-67
2021/05/18 17:25:14;;;;;;;2.33;1.77;;;18.00;66.10;;;;;;5057540;28;20060;-68
2021/05/18 17:27:40;;;;;;;5.22;1.50;;;17.80;69.10;;;;;;5068516;28;20033;-67
2021/05/18 17:30:09;;;;;;;2.53;1.90;;;17.50;72.90;;;;;;5062576;28;20127;-67
2021/05/18 17:32:35;;;;;;;2.33;1.83;;;17.40;76.70;;;;;;5065518;28;20043;-67
2021/05/18 17:35:01;;;;;;;2.80;1.90;;;17.40;84.40;;;;;;5049708;28;20024;-67
2021/05/18 17:37:26;;;;;;;2.10;1.83;;;17.40;87.50;;;;;;5066836;28;20039;-67
2021/05/18 17:39:52;;;;;;;3.40;1.98;;;17.40;90.10;;;;;;5051062;28;20060;-67
2021/05/18 17:42:19;;;;;;;3.50;1.65;;;17.30;91.60;;;;;;5058577;28;20081;-67
2021/05/18 17:44:46;;;;;;;4.88;2.08;;;17.20;93.50;;;;;;5067323;28;20419;-67
2021/05/18 17:47:12;;;;;;;3.50;2.33;;;17.20;94.30;;;;;;5064137;28;20056;-67
2021/05/18 17:49:38;;;;;;;3.55;2.20;;;17.10;95.50;;;;;;5061974;28;20025;-67